createdAt,value
2019-05-23T00:00:02.208Z,0.00
2019-05-23T00:01:03.093Z,0.00
2019-05-23T00:02:02.582Z,0.00
2019-05-23T00:03:02.211Z,0.00
2019-05-23T00:04:02.253Z,0.00
2019-05-23T00:05:02.473Z,0.00
2019-05-23T00:06:03.275Z,0.00
2019-05-23T00:07:02.287Z,0.00
2019-05-23T00:08:02.328Z,0.00
2019-05-23T00:09:02.240Z,0.00
2019-05-23T00:10:02.271Z,0.00
2019-05-23T00:11:02.237Z,0.00
2019-05-23T00:12:02.219Z,0.00
2019-05-23T00:13:02.628Z,0.00
2019-05-23T00:14:02.959Z,0.00
2019-05-23T00:15:02.397Z,0.00
2019-05-23T00:16:02.493Z,0.00
2019-05-23T00:17:02.945Z,0.00
2019-05-23T00:18:02.255Z,0.00
2019-05-23T00:19:02.692Z,0.00
2019-05-23T00:20:02.391Z,0.00
2019-05-23T00:21:02.562Z,0.00
2019-05-23T00:22:02.300Z,0.00
2019-05-23T00:23:02.593Z,0.00
2019-05-23T00:24:02.257Z,0.00
2019-05-23T00:25:02.311Z,0.00
2019-05-23T00:26:02.289Z,0.00
2019-05-23T00:27:02.260Z,0.00
2019-05-23T00:28:02.873Z,0.00
2019-05-23T00:29:10.153Z,0.00
2019-05-23T00:30:02.281Z,0.00
2019-05-23T00:31:02.439Z,0.00
2019-05-23T00:32:02.287Z,0.00
2019-05-23T00:33:02.618Z,0.00
2019-05-23T00:34:02.218Z,0.00
2019-05-23T00:35:02.265Z,0.00
2019-05-23T00:36:02.876Z,0.00
2019-05-23T00:37:02.304Z,0.00
2019-05-23T00:38:02.627Z,0.00
2019-05-23T00:39:02.244Z,0.00
2019-05-23T00:40:02.248Z,0.00
2019-05-23T00:41:02.312Z,0.00
2019-05-23T00:42:02.681Z,0.00
2019-05-23T00:43:03.258Z,0.00
2019-05-23T00:44:03.012Z,0.00
2019-05-23T00:45:02.256Z,0.00
2019-05-23T00:46:02.206Z,0.00
2019-05-23T00:47:02.294Z,0.00
2019-05-23T00:48:02.418Z,0.00
2019-05-23T00:49:02.240Z,0.00
2019-05-23T00:50:02.513Z,0.00
2019-05-23T00:51:05.216Z,0.00
2019-05-23T00:52:02.844Z,0.00
2019-05-23T00:53:05.408Z,0.00
2019-05-23T00:54:02.312Z,0.00
2019-05-23T00:55:02.555Z,0.00
2019-05-23T00:56:02.283Z,0.00
2019-05-23T00:57:02.996Z,0.00
2019-05-23T00:58:02.285Z,0.00
2019-05-23T00:59:02.552Z,0.00
2019-05-23T01:00:02.287Z,0.00
2019-05-23T01:01:02.970Z,0.00
2019-05-23T01:02:02.330Z,0.00
2019-05-23T01:03:02.325Z,0.00
2019-05-23T01:04:02.278Z,0.00
2019-05-23T01:05:02.974Z,0.00
2019-05-23T01:06:02.406Z,0.00
2019-05-23T01:07:02.914Z,0.00
2019-05-23T01:08:02.355Z,0.00
2019-05-23T01:09:02.305Z,0.00
2019-05-23T01:10:03.502Z,0.00
2019-05-23T01:11:02.590Z,0.00
2019-05-23T01:12:02.386Z,0.00
2019-05-23T01:13:03.021Z,0.00
2019-05-23T01:14:02.288Z,0.00
2019-05-23T01:15:03.495Z,0.00
2019-05-23T01:16:02.803Z,0.00
2019-05-23T01:17:02.357Z,0.00
2019-05-23T01:18:02.313Z,0.00
2019-05-23T01:19:03.003Z,0.00
2019-05-23T01:20:02.862Z,0.00
2019-05-23T01:21:03.063Z,0.00
2019-05-23T01:22:04.819Z,0.00
2019-05-23T01:23:02.267Z,0.00
2019-05-23T01:24:02.403Z,0.00
2019-05-23T01:25:02.320Z,0.00
2019-05-23T01:26:02.278Z,0.00
2019-05-23T01:27:02.359Z,0.00
2019-05-23T01:28:02.619Z,0.00
2019-05-23T01:29:02.231Z,0.00
2019-05-23T01:30:02.612Z,0.00
2019-05-23T01:31:02.294Z,0.00
2019-05-23T01:32:02.347Z,0.00
2019-05-23T01:33:02.361Z,0.00
2019-05-23T01:34:02.637Z,0.00
2019-05-23T01:35:02.288Z,0.00
2019-05-23T01:36:03.697Z,0.00
2019-05-23T01:37:02.638Z,0.00
2019-05-23T01:38:04.265Z,0.00
2019-05-23T01:39:03.445Z,0.00
2019-05-23T01:40:02.332Z,0.00
2019-05-23T01:41:02.268Z,0.00
2019-05-23T01:42:02.368Z,0.00
2019-05-23T01:43:02.316Z,0.00
2019-05-23T01:44:02.995Z,0.00
2019-05-23T01:45:02.280Z,0.00
2019-05-23T01:46:02.377Z,0.00
2019-05-23T01:47:02.987Z,0.00
2019-05-23T01:48:02.376Z,0.00
2019-05-23T01:49:02.306Z,0.00
2019-05-23T01:50:02.636Z,0.00
2019-05-23T01:51:02.886Z,0.00
2019-05-23T01:52:03.070Z,0.00
2019-05-23T01:53:02.941Z,0.00
2019-05-23T01:54:02.376Z,0.00
2019-05-23T01:55:02.894Z,0.00
2019-05-23T01:56:02.671Z,0.00
2019-05-23T01:57:02.608Z,0.00
2019-05-23T01:58:02.345Z,0.00
2019-05-23T01:59:02.633Z,0.00
2019-05-23T02:00:09.994Z,0.00
2019-05-23T02:01:02.345Z,0.00
2019-05-23T02:02:03.271Z,0.00
2019-05-23T02:03:02.299Z,0.00
2019-05-23T02:04:02.351Z,0.00
2019-05-23T02:05:02.350Z,0.00
2019-05-23T02:06:03.227Z,0.00
2019-05-23T02:07:03.807Z,0.00
2019-05-23T02:08:02.422Z,0.00
2019-05-23T02:09:02.326Z,0.00
2019-05-23T02:10:02.536Z,0.00
2019-05-23T02:11:02.652Z,0.00
2019-05-23T02:12:03.228Z,0.00
2019-05-23T02:13:02.366Z,0.00
2019-05-23T02:14:02.542Z,0.00
2019-05-23T02:15:02.620Z,0.00
2019-05-23T02:16:02.809Z,0.00
2019-05-23T02:17:02.516Z,0.00
2019-05-23T02:18:02.429Z,0.00
2019-05-23T02:19:02.539Z,0.00
2019-05-23T02:20:02.670Z,0.00
2019-05-23T02:21:02.801Z,0.00
2019-05-23T02:22:02.719Z,0.00
2019-05-23T02:23:02.399Z,0.00
2019-05-23T02:24:02.343Z,0.00
2019-05-23T02:25:02.403Z,0.00
2019-05-23T02:26:02.330Z,0.00
2019-05-23T02:27:02.324Z,0.00
2019-05-23T02:28:02.337Z,0.00
2019-05-23T02:29:02.357Z,0.00
2019-05-23T02:30:03.383Z,0.00
2019-05-23T02:31:02.739Z,0.00
2019-05-23T02:32:02.585Z,0.00
2019-05-23T02:33:02.368Z,0.00
2019-05-23T02:34:02.286Z,0.00
2019-05-23T02:35:02.385Z,0.00
2019-05-23T02:36:03.160Z,0.00
2019-05-23T02:37:02.831Z,0.00
2019-05-23T02:38:02.368Z,0.00
2019-05-23T02:39:02.366Z,0.00
2019-05-23T02:40:02.420Z,0.00
2019-05-23T02:41:02.387Z,0.00
2019-05-23T02:42:02.387Z,0.00
2019-05-23T02:43:02.300Z,0.00
2019-05-23T02:44:02.364Z,0.00
2019-05-23T02:45:02.377Z,0.00
2019-05-23T02:46:02.638Z,0.00
2019-05-23T02:47:02.420Z,0.00
2019-05-23T02:48:02.604Z,0.00
2019-05-23T02:49:02.353Z,0.00
2019-05-23T02:50:02.325Z,0.00
2019-05-23T02:51:02.915Z,0.00
2019-05-23T02:52:03.266Z,0.00
2019-05-23T02:53:04.921Z,0.00
2019-05-23T02:54:03.724Z,0.00
2019-05-23T02:55:02.653Z,0.00
2019-05-23T02:56:02.397Z,0.00
2019-05-23T02:57:02.415Z,0.00
2019-05-23T02:58:02.564Z,0.00
2019-05-23T02:59:02.733Z,0.00
2019-05-23T03:00:02.566Z,0.00
2019-05-23T03:01:02.365Z,0.00
2019-05-23T03:02:02.634Z,0.00
2019-05-23T03:03:02.400Z,0.00
2019-05-23T03:04:05.429Z,0.00
2019-05-23T03:05:02.462Z,0.00
2019-05-23T03:06:02.407Z,0.00
2019-05-23T03:07:02.348Z,0.00
2019-05-23T03:08:02.759Z,0.00
2019-05-23T03:09:03.025Z,0.00
2019-05-23T03:10:02.683Z,0.00
2019-05-23T03:11:02.406Z,0.00
2019-05-23T03:12:02.466Z,0.00
2019-05-23T03:13:02.583Z,0.00
2019-05-23T03:14:02.328Z,0.00
2019-05-23T03:15:02.460Z,0.00
2019-05-23T03:16:03.342Z,0.00
2019-05-23T03:17:03.161Z,0.00
2019-05-23T03:18:02.379Z,0.00
2019-05-23T03:19:02.956Z,0.00
2019-05-23T03:20:02.684Z,0.00
2019-05-23T03:21:02.381Z,0.00
2019-05-23T03:22:02.361Z,0.00
2019-05-23T03:23:02.386Z,0.00
2019-05-23T03:24:02.392Z,0.00
2019-05-23T03:25:02.367Z,0.00
2019-05-23T03:26:02.423Z,0.00
2019-05-23T03:27:02.869Z,0.00
2019-05-23T03:28:02.420Z,0.00
2019-05-23T03:29:02.343Z,0.00
2019-05-23T03:30:02.452Z,0.00
2019-05-23T03:31:26.673Z,0.00
2019-05-23T03:32:02.356Z,0.00
2019-05-23T03:33:02.477Z,0.00
2019-05-23T03:34:02.384Z,0.00
2019-05-23T03:35:02.395Z,0.00
2019-05-23T03:36:02.476Z,0.00
2019-05-23T03:37:02.398Z,0.00
2019-05-23T03:38:02.722Z,0.00
2019-05-23T03:39:02.414Z,0.00
2019-05-23T03:40:02.718Z,0.00
2019-05-23T03:41:02.382Z,0.00
2019-05-23T03:42:02.415Z,0.00
2019-05-23T03:43:02.734Z,0.00
2019-05-23T03:44:02.361Z,0.00
2019-05-23T03:45:02.439Z,0.00
2019-05-23T03:46:02.404Z,0.00
2019-05-23T03:47:02.713Z,0.00
2019-05-23T03:48:02.915Z,0.00
2019-05-23T03:49:03.033Z,0.00
2019-05-23T03:50:02.418Z,0.00
2019-05-23T03:51:02.446Z,0.00
2019-05-23T03:52:02.657Z,0.00
2019-05-23T03:53:03.218Z,0.00
2019-05-23T03:54:03.495Z,0.00
2019-05-23T03:55:03.151Z,0.00
2019-05-23T03:56:02.384Z,0.00
2019-05-23T03:57:03.157Z,0.00
2019-05-23T03:58:02.510Z,0.00
2019-05-23T03:59:02.422Z,0.00
2019-05-23T04:00:03.324Z,0.00
2019-05-23T04:01:03.438Z,0.00
2019-05-23T04:02:03.338Z,0.00
2019-05-23T04:03:02.436Z,0.00
2019-05-23T04:04:03.193Z,0.00
2019-05-23T04:05:02.403Z,0.00
2019-05-23T04:06:03.199Z,0.00
2019-05-23T04:07:02.429Z,0.00
2019-05-23T04:08:02.459Z,0.00
2019-05-23T04:09:02.909Z,0.00
2019-05-23T04:10:03.470Z,0.00
2019-05-23T04:11:02.434Z,0.00
2019-05-23T04:12:02.391Z,0.00
2019-05-23T04:13:02.544Z,0.00
2019-05-23T04:14:02.738Z,0.00
2019-05-23T04:15:02.366Z,0.00
2019-05-23T04:16:02.791Z,0.00
2019-05-23T04:17:03.480Z,0.00
2019-05-23T04:18:03.004Z,0.00
2019-05-23T04:19:02.485Z,0.00
2019-05-23T04:20:05.820Z,0.00
2019-05-23T04:21:02.413Z,0.00
2019-05-23T04:22:02.488Z,0.00
2019-05-23T04:23:02.431Z,0.00
2019-05-23T04:24:02.450Z,0.00
2019-05-23T04:25:03.222Z,0.00
2019-05-23T04:26:03.121Z,0.00
2019-05-23T04:27:02.467Z,0.00
2019-05-23T04:28:02.464Z,0.00
2019-05-23T04:29:03.395Z,0.00
2019-05-23T04:30:02.779Z,0.00
2019-05-23T04:31:02.473Z,0.00
2019-05-23T04:32:07.577Z,0.00
2019-05-23T04:33:02.439Z,0.00
2019-05-23T04:34:02.522Z,0.00
2019-05-23T04:35:02.770Z,0.00
2019-05-23T04:36:03.464Z,0.00
2019-05-23T04:37:02.489Z,0.00
2019-05-23T04:38:02.461Z,0.00
2019-05-23T04:39:02.417Z,0.00
2019-05-23T04:40:02.527Z,0.00
2019-05-23T04:41:02.561Z,0.00
2019-05-23T04:42:03.576Z,0.00
2019-05-23T04:43:02.483Z,0.00
2019-05-23T04:44:02.490Z,0.00
2019-05-23T04:45:02.782Z,0.00
2019-05-23T04:46:02.740Z,0.00
2019-05-23T04:47:02.447Z,0.00
2019-05-23T04:48:02.454Z,0.00
2019-05-23T04:49:02.647Z,0.00
2019-05-23T04:50:03.097Z,0.00
2019-05-23T04:51:02.437Z,0.00
2019-05-23T04:52:02.828Z,0.00
2019-05-23T04:53:03.487Z,0.00
2019-05-23T04:54:02.481Z,0.00
2019-05-23T04:55:02.748Z,0.00
2019-05-23T04:56:02.616Z,0.00
2019-05-23T04:57:02.423Z,0.00
2019-05-23T04:58:04.681Z,0.00
2019-05-23T04:59:02.805Z,0.00
2019-05-23T05:00:02.455Z,0.00
2019-05-23T05:01:02.730Z,0.00
2019-05-23T05:02:02.470Z,0.00
2019-05-23T05:03:02.924Z,0.00
2019-05-23T05:04:03.594Z,0.00
2019-05-23T05:05:02.824Z,0.00
2019-05-23T05:06:02.780Z,0.00
2019-05-23T05:07:02.428Z,0.00
2019-05-23T05:08:02.561Z,0.00
2019-05-23T05:09:02.899Z,0.00
2019-05-23T05:10:02.445Z,0.00
2019-05-23T05:11:02.516Z,0.00
2019-05-23T05:12:03.628Z,0.00
2019-05-23T05:13:02.929Z,0.00
2019-05-23T05:14:02.857Z,0.00
2019-05-23T05:15:02.589Z,0.00
2019-05-23T05:16:03.061Z,0.00
2019-05-23T05:17:02.600Z,0.00
2019-05-23T05:18:02.460Z,0.00
2019-05-23T05:19:02.492Z,0.00
2019-05-23T05:20:02.860Z,0.00
2019-05-23T05:21:02.484Z,0.00
2019-05-23T05:22:02.660Z,0.00
2019-05-23T05:23:02.522Z,0.00
2019-05-23T05:24:04.161Z,0.00
2019-05-23T05:25:02.433Z,0.00
2019-05-23T05:26:02.543Z,0.00
2019-05-23T05:27:02.467Z,0.00
2019-05-23T05:28:02.813Z,0.00
2019-05-23T05:29:02.607Z,0.00
2019-05-23T05:30:03.449Z,0.00
2019-05-23T05:31:02.504Z,0.00
2019-05-23T05:32:04.631Z,0.00
2019-05-23T05:33:03.242Z,0.00
2019-05-23T05:34:02.450Z,0.00
2019-05-23T05:35:02.554Z,0.00
2019-05-23T05:36:03.286Z,0.00
2019-05-23T05:37:02.795Z,0.00
2019-05-23T05:38:02.615Z,0.00
2019-05-23T05:39:02.802Z,0.00
2019-05-23T05:40:02.790Z,0.00
2019-05-23T05:41:02.637Z,0.00
2019-05-23T05:42:02.853Z,0.00
2019-05-23T05:43:02.819Z,0.00
2019-05-23T05:44:02.550Z,0.00
2019-05-23T05:45:03.262Z,0.00
2019-05-23T05:46:03.529Z,0.00
2019-05-23T05:47:03.297Z,0.00
2019-05-23T05:48:02.520Z,0.00
2019-05-23T05:49:03.003Z,0.00
2019-05-23T05:50:02.574Z,0.00
2019-05-23T05:51:02.873Z,0.49
2019-05-23T05:52:03.088Z,0.01
2019-05-23T05:53:02.446Z,0.04
2019-05-23T05:54:03.085Z,0.14
2019-05-23T05:55:03.450Z,0.00
2019-05-23T05:56:02.688Z,0.00
2019-05-23T05:57:02.511Z,0.00
2019-05-23T05:58:02.837Z,0.00
2019-05-23T05:59:03.692Z,0.00
2019-05-23T06:00:03.621Z,0.00
2019-05-23T06:01:03.066Z,0.00
2019-05-23T06:02:02.612Z,0.00
2019-05-23T06:03:05.119Z,0.00
2019-05-23T06:04:02.485Z,0.00
2019-05-23T06:05:02.618Z,0.00
2019-05-23T06:06:03.093Z,0.62
2019-05-23T06:07:02.862Z,0.01
2019-05-23T06:08:03.216Z,0.00
2019-05-23T06:09:02.865Z,0.00
2019-05-23T06:10:03.492Z,0.00
2019-05-23T06:11:02.591Z,0.00
2019-05-23T06:12:02.882Z,0.01
2019-05-23T06:13:03.489Z,0.27
2019-05-23T06:14:02.500Z,0.00
2019-05-23T06:15:04.042Z,0.00
2019-05-23T06:16:02.526Z,0.11
2019-05-23T06:17:02.470Z,0.37
2019-05-23T06:18:02.666Z,0.00
2019-05-23T06:19:02.559Z,0.64
2019-05-23T06:20:02.567Z,0.83
2019-05-23T06:21:02.620Z,0.73
2019-05-23T06:22:02.970Z,0.54
2019-05-23T06:23:02.523Z,0.24
2019-05-23T06:24:03.273Z,1.13
2019-05-23T06:25:03.709Z,1.41
2019-05-23T06:26:02.527Z,1.54
2019-05-23T06:27:03.297Z,1.33
2019-05-23T06:28:02.880Z,2.15
2019-05-23T06:29:02.511Z,1.32
2019-05-23T06:30:02.696Z,1.46
2019-05-23T06:31:02.551Z,1.26
2019-05-23T06:32:03.232Z,0.76
2019-05-23T06:33:08.035Z,0.41
2019-05-23T06:34:03.605Z,2.07
2019-05-23T06:35:02.596Z,0.95
2019-05-23T06:36:03.637Z,0.98
2019-05-23T06:37:02.751Z,0.66
2019-05-23T06:38:02.524Z,0.94
2019-05-23T06:39:02.615Z,1.05
2019-05-23T06:40:02.906Z,0.32
2019-05-23T06:41:03.235Z,0.45
2019-05-23T06:42:03.132Z,1.35
2019-05-23T06:43:02.579Z,1.87
2019-05-23T06:44:03.520Z,0.76
2019-05-23T06:45:02.709Z,0.78
2019-05-23T06:46:02.551Z,1.69
2019-05-23T06:47:02.534Z,0.50
2019-05-23T06:48:02.606Z,1.44
2019-05-23T06:49:03.588Z,0.97
2019-05-23T06:50:02.590Z,0.62
2019-05-23T06:51:02.691Z,0.38
2019-05-23T06:52:02.674Z,0.73
2019-05-23T06:53:02.885Z,0.00
2019-05-23T06:54:02.697Z,0.00
2019-05-23T06:55:02.606Z,0.00
2019-05-23T06:56:02.899Z,0.00
2019-05-23T06:57:02.840Z,0.00
2019-05-23T06:58:02.616Z,0.00
2019-05-23T06:59:02.829Z,0.00
2019-05-23T07:00:02.831Z,0.00
2019-05-23T07:01:03.339Z,0.99
2019-05-23T07:02:02.868Z,0.33
2019-05-23T07:03:02.898Z,0.65
2019-05-23T07:04:02.614Z,1.68
2019-05-23T07:05:02.728Z,1.54
2019-05-23T07:06:02.976Z,1.23
2019-05-23T07:07:02.933Z,1.08
2019-05-23T07:08:02.581Z,0.84
2019-05-23T07:09:02.666Z,1.64
2019-05-23T07:10:03.553Z,2.51
2019-05-23T07:11:02.566Z,1.36
2019-05-23T07:12:02.730Z,1.84
2019-05-23T07:13:03.374Z,1.29
2019-05-23T07:14:02.682Z,0.72
2019-05-23T07:15:02.846Z,0.60
2019-05-23T07:16:02.651Z,0.53
2019-05-23T07:17:03.315Z,1.12
2019-05-23T07:18:02.776Z,1.09
2019-05-23T07:19:02.641Z,1.53
2019-05-23T07:20:02.938Z,2.13
2019-05-23T07:21:02.728Z,2.82
2019-05-23T07:22:03.360Z,0.97
2019-05-23T07:23:02.616Z,1.49
2019-05-23T07:24:02.686Z,0.42
2019-05-23T07:25:02.683Z,0.98
2019-05-23T07:26:02.756Z,0.08
2019-05-23T07:27:02.665Z,0.61
2019-05-23T07:28:02.974Z,0.15
2019-05-23T07:29:02.632Z,0.46
2019-05-23T07:30:03.442Z,1.25
2019-05-23T07:31:03.521Z,1.49
2019-05-23T07:32:03.239Z,0.98
2019-05-23T07:33:02.898Z,1.18
2019-05-23T07:34:03.627Z,1.21
2019-05-23T07:35:02.839Z,1.58
2019-05-23T07:36:03.138Z,1.14
2019-05-23T07:37:02.866Z,0.75
2019-05-23T07:38:03.463Z,0.67
2019-05-23T07:39:02.748Z,1.06
2019-05-23T07:40:02.725Z,0.00
2019-05-23T07:41:03.395Z,0.79
2019-05-23T07:42:02.847Z,1.59
2019-05-23T07:43:03.004Z,1.40
2019-05-23T07:44:03.106Z,2.84
2019-05-23T07:45:03.282Z,1.10
2019-05-23T07:46:03.272Z,1.29
2019-05-23T07:47:02.630Z,1.13
2019-05-23T07:48:02.951Z,1.74
2019-05-23T07:49:03.171Z,2.69
2019-05-23T07:50:03.684Z,2.07
2019-05-23T07:51:02.736Z,0.19
2019-05-23T07:52:02.847Z,1.13
2019-05-23T07:53:03.324Z,2.51
2019-05-23T07:54:03.875Z,0.90
2019-05-23T07:55:03.605Z,1.53
2019-05-23T07:56:03.021Z,0.41
2019-05-23T07:57:03.061Z,0.38
2019-05-23T07:58:03.411Z,2.08
2019-05-23T07:59:03.011Z,2.09
2019-05-23T08:00:03.171Z,1.48
2019-05-23T08:01:03.448Z,1.38
2019-05-23T08:02:02.715Z,1.02
2019-05-23T08:03:03.005Z,0.77
2019-05-23T08:04:19.804Z,0.88
2019-05-23T08:05:02.673Z,0.66
2019-05-23T08:06:02.638Z,0.68
2019-05-23T08:07:02.708Z,1.63
2019-05-23T08:08:03.022Z,0.74
2019-05-23T08:09:02.744Z,1.41
2019-05-23T08:10:02.855Z,0.69
2019-05-23T08:11:02.684Z,1.94
2019-05-23T08:12:02.653Z,2.03
2019-05-23T08:13:06.272Z,1.40
2019-05-23T08:14:02.666Z,2.78
2019-05-23T08:15:03.069Z,2.25
2019-05-23T08:16:02.727Z,0.63
2019-05-23T08:17:03.319Z,1.49
2019-05-23T08:18:03.282Z,2.17
2019-05-23T08:19:02.732Z,3.39
2019-05-23T08:20:03.052Z,2.31
2019-05-23T08:21:02.982Z,1.76
2019-05-23T08:22:03.430Z,3.33
2019-05-23T08:23:02.705Z,3.51
2019-05-23T08:24:02.675Z,2.35
2019-05-23T08:25:02.773Z,1.15
2019-05-23T08:26:02.713Z,2.69
2019-05-23T08:27:02.652Z,2.23
2019-05-23T08:28:03.100Z,2.88
2019-05-23T08:29:24.543Z,2.32
2019-05-23T08:30:02.685Z,2.93
2019-05-23T08:31:02.993Z,1.80
2019-05-23T08:32:03.328Z,0.81
2019-05-23T08:33:02.682Z,2.53
2019-05-23T08:34:03.471Z,2.68
2019-05-23T08:35:03.378Z,3.83
2019-05-23T08:36:02.915Z,3.48
2019-05-23T08:37:02.738Z,3.93
2019-05-23T08:38:03.325Z,3.82
2019-05-23T08:39:03.247Z,2.33
2019-05-23T08:40:03.149Z,4.19
2019-05-23T08:41:02.842Z,2.57
2019-05-23T08:42:03.741Z,3.27
2019-05-23T08:43:03.088Z,1.01
2019-05-23T08:44:02.737Z,2.00
2019-05-23T08:45:03.023Z,3.15
2019-05-23T08:46:03.306Z,2.18
2019-05-23T08:47:02.772Z,1.60
2019-05-23T08:48:03.259Z,2.39
2019-05-23T08:49:02.776Z,2.07
2019-05-23T08:50:02.779Z,3.01
2019-05-23T08:51:02.742Z,2.81
2019-05-23T08:52:03.041Z,3.74
2019-05-23T08:53:02.754Z,2.88
2019-05-23T08:54:02.732Z,3.10
2019-05-23T08:55:02.927Z,4.07
2019-05-23T08:56:03.367Z,2.90
2019-05-23T08:57:03.550Z,2.95
2019-05-23T08:58:02.773Z,3.14
2019-05-23T08:59:03.563Z,2.94
2019-05-23T09:00:02.815Z,3.84
2019-05-23T09:01:02.663Z,2.88
2019-05-23T09:02:03.081Z,2.79
2019-05-23T09:03:03.065Z,2.07
2019-05-23T09:04:03.514Z,2.53
2019-05-23T09:05:05.207Z,4.33
2019-05-23T09:06:02.749Z,2.92
2019-05-23T09:07:03.147Z,2.25
2019-05-23T09:08:02.982Z,3.17
2019-05-23T09:09:03.593Z,1.74
2019-05-23T09:10:03.427Z,1.81
2019-05-23T09:11:03.130Z,2.32
2019-05-23T09:12:03.696Z,2.51
2019-05-23T09:13:02.848Z,2.63
2019-05-23T09:14:02.923Z,3.07
2019-05-23T09:15:02.876Z,2.72
2019-05-23T09:16:02.822Z,1.72
2019-05-23T09:17:02.795Z,3.37
2019-05-23T09:18:03.676Z,2.72
2019-05-23T09:19:02.716Z,2.16
2019-05-23T09:20:02.782Z,2.61
2019-05-23T09:21:03.224Z,3.42
2019-05-23T09:22:03.041Z,2.78
2019-05-23T09:23:03.131Z,2.68
2019-05-23T09:24:03.114Z,2.72
2019-05-23T09:25:02.742Z,2.45
2019-05-23T09:26:02.804Z,4.46
2019-05-23T09:27:02.778Z,1.86
2019-05-23T09:28:02.744Z,3.19
2019-05-23T09:29:02.827Z,1.78
2019-05-23T09:30:02.810Z,2.03
2019-05-23T09:31:02.767Z,2.88
2019-05-23T09:32:02.820Z,3.47
2019-05-23T09:33:02.764Z,3.71
2019-05-23T09:34:02.758Z,2.01
2019-05-23T09:35:19.191Z,2.76
2019-05-23T09:36:02.804Z,4.75
2019-05-23T09:37:02.765Z,2.67
2019-05-23T09:38:02.796Z,2.09
2019-05-23T09:39:03.136Z,4.63
2019-05-23T09:40:02.754Z,3.66
2019-05-23T09:41:03.151Z,3.61
2019-05-23T09:42:02.979Z,3.73
2019-05-23T09:43:02.848Z,2.22
2019-05-23T09:44:02.954Z,3.30
2019-05-23T09:45:03.088Z,4.11
2019-05-23T09:46:03.085Z,3.84
2019-05-23T09:47:03.456Z,4.87
2019-05-23T09:48:03.463Z,3.26
2019-05-23T09:49:03.153Z,4.90
2019-05-23T09:50:02.841Z,5.00
2019-05-23T09:51:02.824Z,2.82
2019-05-23T09:52:02.818Z,1.60
2019-05-23T09:53:03.874Z,2.73
2019-05-23T09:54:03.429Z,3.49
2019-05-23T09:55:02.789Z,2.16
2019-05-23T09:56:04.051Z,2.92
2019-05-23T09:57:03.134Z,3.05
2019-05-23T09:58:02.770Z,1.92
2019-05-23T09:59:02.874Z,3.38
2019-05-23T10:00:03.246Z,2.56
2019-05-23T10:01:02.803Z,1.86
2019-05-23T10:02:03.276Z,3.79
2019-05-23T10:03:02.807Z,3.41
2019-05-23T10:04:03.829Z,2.44
2019-05-23T10:05:02.961Z,2.23
2019-05-23T10:06:02.955Z,2.19
2019-05-23T10:07:02.850Z,2.83
2019-05-23T10:08:03.200Z,2.47
2019-05-23T10:09:03.167Z,1.89
2019-05-23T10:10:02.782Z,1.51
2019-05-23T10:11:02.930Z,1.14
2019-05-23T10:12:03.187Z,3.17
2019-05-23T10:13:02.849Z,3.64
2019-05-23T10:14:02.849Z,4.66
2019-05-23T10:15:02.818Z,3.20
2019-05-23T10:16:02.984Z,3.16
2019-05-23T10:17:02.888Z,1.99
2019-05-23T10:18:03.159Z,2.61
2019-05-23T10:19:02.815Z,3.58
2019-05-23T10:20:02.902Z,3.41
2019-05-23T10:21:03.289Z,3.28
2019-05-23T10:22:02.833Z,3.73
2019-05-23T10:23:02.865Z,2.60
2019-05-23T10:24:02.858Z,3.05
2019-05-23T10:25:03.758Z,1.97
2019-05-23T10:26:03.630Z,3.96
2019-05-23T10:27:03.456Z,1.41
2019-05-23T10:28:02.815Z,2.96
2019-05-23T10:29:05.744Z,2.37
2019-05-23T10:30:02.863Z,3.83
2019-05-23T10:31:03.524Z,3.76
2019-05-23T10:32:03.602Z,2.88
2019-05-23T10:33:10.917Z,2.02
2019-05-23T10:34:02.952Z,2.99
2019-05-23T10:35:02.899Z,3.14
2019-05-23T10:36:03.094Z,3.58
2019-05-23T10:37:02.819Z,1.66
2019-05-23T10:38:02.956Z,2.19
2019-05-23T10:39:02.866Z,4.20
2019-05-23T10:40:03.793Z,1.45
2019-05-23T10:41:02.944Z,2.85
2019-05-23T10:42:03.833Z,2.05
2019-05-23T10:43:03.544Z,3.18
2019-05-23T10:44:02.989Z,2.50
2019-05-23T10:45:03.008Z,2.60
2019-05-23T10:46:03.633Z,4.12
2019-05-23T10:47:03.967Z,3.18
2019-05-23T10:48:03.234Z,2.50
2019-05-23T10:49:02.830Z,4.53
2019-05-23T10:50:07.850Z,3.23
2019-05-23T10:51:02.925Z,1.76
2019-05-23T10:52:02.836Z,1.68
2019-05-23T10:53:02.845Z,1.27
2019-05-23T10:54:03.232Z,2.68
2019-05-23T10:55:02.891Z,2.16
2019-05-23T10:56:03.291Z,2.02
2019-05-23T10:57:03.951Z,3.21
2019-05-23T10:58:03.091Z,3.10
2019-05-23T10:59:03.686Z,1.87
2019-05-23T11:00:03.014Z,2.07
2019-05-23T11:01:02.875Z,2.28
2019-05-23T11:02:03.630Z,3.20
2019-05-23T11:03:02.909Z,3.03
2019-05-23T11:04:03.470Z,3.72
2019-05-23T11:05:12.008Z,2.75
2019-05-23T11:06:15.781Z,2.17
2019-05-23T11:07:03.534Z,3.58
2019-05-23T11:08:03.192Z,2.81
2019-05-23T11:09:03.247Z,3.97
2019-05-23T11:10:03.565Z,2.98
2019-05-23T11:11:03.372Z,4.41
2019-05-23T11:12:03.553Z,3.93
2019-05-23T11:13:02.888Z,2.18
2019-05-23T11:14:07.976Z,3.43
2019-05-23T11:15:03.024Z,2.68
2019-05-23T11:16:03.223Z,2.40
2019-05-23T11:17:03.423Z,1.98
2019-05-23T11:18:03.995Z,2.75
2019-05-23T11:19:02.893Z,3.00
2019-05-23T11:20:03.506Z,2.77
2019-05-23T11:21:02.933Z,3.78
2019-05-23T11:22:02.985Z,3.10
2019-05-23T11:23:04.027Z,2.93
2019-05-23T11:24:03.886Z,3.78
2019-05-23T11:25:03.306Z,4.50
2019-05-23T11:26:03.697Z,4.03
2019-05-23T11:27:03.232Z,2.92
2019-05-23T11:28:03.555Z,2.76
2019-05-23T11:29:03.239Z,1.85
2019-05-23T11:30:02.988Z,1.47
2019-05-23T11:31:03.537Z,2.76
2019-05-23T11:32:02.930Z,2.80
2019-05-23T11:33:02.949Z,1.12
2019-05-23T11:34:03.022Z,2.35
2019-05-23T11:35:03.452Z,1.63
2019-05-23T11:36:02.958Z,1.37
2019-05-23T11:37:02.928Z,1.48
2019-05-23T11:38:03.128Z,1.60
2019-05-23T11:39:03.289Z,3.02
2019-05-23T11:40:03.280Z,2.70
2019-05-23T11:41:02.875Z,3.41
2019-05-23T11:42:03.806Z,4.75
2019-05-23T11:43:03.279Z,3.40
2019-05-23T11:44:03.248Z,2.00
2019-05-23T11:45:02.982Z,1.24
2019-05-23T11:46:02.958Z,3.00
2019-05-23T11:47:02.958Z,0.87
2019-05-23T11:48:02.982Z,2.55
2019-05-23T11:49:03.277Z,2.20
2019-05-23T11:50:02.893Z,1.45
2019-05-23T11:51:03.002Z,0.35
2019-05-23T11:52:03.190Z,1.65
2019-05-23T11:53:03.259Z,2.91
2019-05-23T11:54:07.981Z,1.80
2019-05-23T11:55:03.291Z,1.52
2019-05-23T11:56:03.294Z,5.02
2019-05-23T11:57:03.382Z,4.30
2019-05-23T11:58:02.954Z,3.29
2019-05-23T11:59:03.972Z,2.33
2019-05-23T12:00:03.102Z,3.15
2019-05-23T12:01:03.795Z,1.94
2019-05-23T12:02:03.276Z,1.99
2019-05-23T12:03:03.353Z,1.96
2019-05-23T12:04:03.326Z,2.92
2019-05-23T12:05:02.936Z,1.27
2019-05-23T12:06:05.592Z,3.10
2019-05-23T12:07:03.195Z,2.73
2019-05-23T12:08:03.142Z,3.34
2019-05-23T12:09:03.758Z,2.30
2019-05-23T12:10:03.298Z,2.75
2019-05-23T12:11:03.470Z,2.41
2019-05-23T12:12:03.056Z,2.68
2019-05-23T12:13:02.992Z,3.20
2019-05-23T12:14:02.940Z,2.30
2019-05-23T12:15:03.005Z,4.35
2019-05-23T12:16:03.602Z,1.90
2019-05-23T12:17:03.044Z,3.97
2019-05-23T12:18:03.051Z,3.60
2019-05-23T12:19:03.427Z,1.04
2019-05-23T12:20:03.442Z,2.38
2019-05-23T12:21:03.011Z,3.54
2019-05-23T12:22:03.022Z,2.77
2019-05-23T12:23:10.565Z,1.38
2019-05-23T12:24:02.914Z,1.68
2019-05-23T12:25:20.102Z,1.42
2019-05-23T12:26:04.434Z,1.89
2019-05-23T12:27:03.385Z,1.60
2019-05-23T12:28:03.833Z,1.65
2019-05-23T12:29:02.978Z,2.00
2019-05-23T12:30:03.768Z,2.15
2019-05-23T12:31:03.123Z,3.95
2019-05-23T12:32:03.614Z,3.23
2019-05-23T12:33:04.103Z,3.34
2019-05-23T12:34:03.006Z,2.92
2019-05-23T12:35:11.270Z,2.24
2019-05-23T12:36:02.930Z,4.07
2019-05-23T12:37:18.529Z,3.17
2019-05-23T12:38:03.342Z,3.32
2019-05-23T12:39:03.430Z,1.37
2019-05-23T12:40:03.719Z,0.92
2019-05-23T12:41:03.544Z,0.46
2019-05-23T12:42:03.116Z,1.14
2019-05-23T12:43:03.383Z,1.58
2019-05-23T12:44:03.124Z,1.68
2019-05-23T12:45:02.986Z,1.39
2019-05-23T12:46:03.799Z,2.15
2019-05-23T12:47:03.779Z,1.99
2019-05-23T12:48:03.310Z,3.07
2019-05-23T12:49:03.362Z,3.12
2019-05-23T12:50:03.022Z,3.86
2019-05-23T12:51:03.626Z,3.18
2019-05-23T12:52:03.389Z,3.23
2019-05-23T12:53:03.022Z,2.68
2019-05-23T12:54:03.720Z,2.56
2019-05-23T12:55:04.085Z,3.22
2019-05-23T12:56:03.008Z,3.00
2019-05-23T12:57:03.167Z,1.67
2019-05-23T12:58:03.101Z,3.92
2019-05-23T12:59:03.261Z,2.23
2019-05-23T13:00:03.309Z,1.47
2019-05-23T13:01:03.061Z,3.40
2019-05-23T13:02:03.366Z,3.37
2019-05-23T13:03:03.002Z,2.48
2019-05-23T13:04:03.070Z,1.97
2019-05-23T13:05:03.037Z,3.40
2019-05-23T13:06:03.259Z,0.95
2019-05-23T13:07:03.162Z,1.29
2019-05-23T13:08:06.107Z,2.86
2019-05-23T13:09:02.984Z,1.58
2019-05-23T13:10:03.116Z,2.16
2019-05-23T13:11:03.045Z,1.87
2019-05-23T13:12:03.356Z,3.63
2019-05-23T13:13:03.084Z,3.77
2019-05-23T13:14:03.102Z,2.09
2019-05-23T13:15:03.000Z,2.52
2019-05-23T13:16:03.284Z,2.76
2019-05-23T13:17:03.099Z,2.13
2019-05-23T13:18:03.005Z,2.46